sensor_id;sensor_type;location;lat;lon;timestamp;pressure;altitude;pressure_sealevel;temperature;humidity
13456;BME280;6800;50.940;6.940;2023-05-23T00:01:48;100930.13;;;26.13;43.13
13456;BME280;6800;50.940;6.940;2023-05-23T00:05:51;100927.19;;;26.00;43.57
13456;BME280;6800;50.940;6.940;2023-05-23T00:09:52;100926.22;;;25.79;43.50
13456;BME280;6800;50.940;6.940;2023-05-23T00:13:57;100922.88;;;25.77;44.13
13456;BME280;6800;50.940;6.940;2023-05-23T00:18:01;100920.72;;;25.95;43.42
13456;BME280;6800;50.940;6.940;2023-05-23T00:22:02;100915.19;;;25.96;43.29
13456;BME280;6800;50.940;6.940;2023-05-23T00:26:04;100917.78;;;26.04;43.16
13456;BME280;6800;50.940;6.940;2023-05-23T00:30:06;100930.72;;;25.78;43.44
13456;BME280;6800;50.940;6.940;2023-05-23T00:34:08;100930.31;;;25.89;43.38
13456;BME280;6800;50.940;6.940;2023-05-23T00:38:09;100935.41;;;25.53;43.68
13456;BME280;6800;50.940;6.940;2023-05-23T00:42:11;100933.28;;;25.72;43.41
13456;BME280;6800;50.940;6.940;2023-05-23T00:46:13;100935.69;;;25.81;43.70
13456;BME280;6800;50.940;6.940;2023-05-23T00:50:15;100934.44;;;25.92;43.10
13456;BME280;6800;50.940;6.940;2023-05-23T00:54:21;100933.16;;;26.10;42.81
13456;BME280;6800;50.940;6.940;2023-05-23T00:58:24;100929.31;;;26.05;42.89
13456;BME280;6800;50.940;6.940;2023-05-23T01:02:26;100934.09;;;25.95;42.95
13456;BME280;6800;50.940;6.940;2023-05-23T01:06:28;100932.69;;;25.84;42.63
13456;BME280;6800;50.940;6.940;2023-05-23T01:10:30;100940.78;;;25.76;42.78
13456;BME280;6800;50.940;6.940;2023-05-23T01:24:02;100946.44;;;25.96;41.81
13456;BME280;6800;50.940;6.940;2023-05-23T01:28:11;100949.78;;;26.20;41.83
13456;BME280;6800;50.940;6.940;2023-05-23T01:32:14;100949.50;;;26.15;41.85
13456;BME280;6800;50.940;6.940;2023-05-23T01:36:16;100937.28;;;26.36;41.36
13456;BME280;6800;50.940;6.940;2023-05-23T01:40:17;100937.63;;;25.95;42.73
13456;BME280;6800;50.940;6.940;2023-05-23T01:44:19;100943.63;;;25.97;42.32
13456;BME280;6800;50.940;6.940;2023-05-23T01:48:25;100951.28;;;26.23;42.11
13456;BME280;6800;50.940;6.940;2023-05-23T01:52:28;100944.88;;;25.33;43.93
13456;BME280;6800;50.940;6.940;2023-05-23T01:56:30;100962.97;;;25.15;43.35
13456;BME280;6800;50.940;6.940;2023-05-23T02:00:34;100969.28;;;25.61;42.36
13456;BME280;6800;50.940;6.940;2023-05-23T02:04:36;100974.34;;;26.01;41.62
13456;BME280;6800;50.940;6.940;2023-05-23T02:08:37;100973.69;;;26.22;41.22
13456;BME280;6800;50.940;6.940;2023-05-23T02:12:39;100973.22;;;25.96;41.04
13456;BME280;6800;50.940;6.940;2023-05-23T02:16:40;100975.31;;;25.63;41.58
13456;BME280;6800;50.940;6.940;2023-05-23T02:20:42;100979.41;;;25.96;41.19
13456;BME280;6800;50.940;6.940;2023-05-23T02:24:44;100985.28;;;25.92;40.64
13456;BME280;6800;50.940;6.940;2023-05-23T02:28:45;100989.34;;;25.88;41.01
13456;BME280;6800;50.940;6.940;2023-05-23T02:32:46;100987.50;;;26.11;40.19
13456;BME280;6800;50.940;6.940;2023-05-23T02:36:48;100993.06;;;26.09;40.59
13456;BME280;6800;50.940;6.940;2023-05-23T02:40:49;100996.63;;;25.94;40.50
13456;BME280;6800;50.940;6.940;2023-05-23T02:44:52;100991.03;;;25.58;41.44
13456;BME280;6800;50.940;6.940;2023-05-23T02:48:53;100995.03;;;26.07;40.18
13456;BME280;6800;50.940;6.940;2023-05-23T02:52:54;100983.94;;;26.18;40.30
13456;BME280;6800;50.940;6.940;2023-05-23T02:56:56;100987.84;;;25.85;41.31
13456;BME280;6800;50.940;6.940;2023-05-23T03:00:58;100981.97;;;25.67;41.81
13456;BME280;6800;50.940;6.940;2023-05-23T03:05:00;100978.28;;;26.13;40.81
13456;BME280;6800;50.940;6.940;2023-05-23T03:09:02;100975.66;;;25.60;41.23
13456;BME280;6800;50.940;6.940;2023-05-23T03:13:04;100986.91;;;25.78;41.57
13456;BME280;6800;50.940;6.940;2023-05-23T03:17:06;100991.84;;;25.89;41.29
13456;BME280;6800;50.940;6.940;2023-05-23T03:21:08;100993.50;;;25.90;41.26
13456;BME280;6800;50.940;6.940;2023-05-23T03:25:09;100988.81;;;25.92;40.82
13456;BME280;6800;50.940;6.940;2023-05-23T03:29:11;100999.56;;;25.62;41.99
13456;BME280;6800;50.940;6.940;2023-05-23T03:33:12;101006.88;;;25.90;41.72
13456;BME280;6800;50.940;6.940;2023-05-23T03:37:14;101017.78;;;25.58;42.73
13456;BME280;6800;50.940;6.940;2023-05-23T03:41:15;101010.91;;;25.25;43.38
13456;BME280;6800;50.940;6.940;2023-05-23T03:45:17;101014.06;;;25.67;42.82
13456;BME280;6800;50.940;6.940;2023-05-23T03:49:19;101008.13;;;25.80;42.22
13456;BME280;6800;50.940;6.940;2023-05-23T03:53:20;101016.03;;;25.34;43.33
13456;BME280;6800;50.940;6.940;2023-05-23T03:57:21;101010.03;;;25.32;43.04
13456;BME280;6800;50.940;6.940;2023-05-23T04:01:23;101019.50;;;25.51;43.01
13456;BME280;6800;50.940;6.940;2023-05-23T04:05:27;101006.03;;;24.90;43.65
13456;BME280;6800;50.940;6.940;2023-05-23T04:09:28;101010.47;;;25.52;42.34
13456;BME280;6800;50.940;6.940;2023-05-23T04:13:30;101015.97;;;25.81;42.00
13456;BME280;6800;50.940;6.940;2023-05-23T04:17:32;101027.22;;;25.38;42.39
13456;BME280;6800;50.940;6.940;2023-05-23T04:21:33;101017.66;;;25.51;41.89
13456;BME280;6800;50.940;6.940;2023-05-23T04:25:35;101024.06;;;25.42;42.15
13456;BME280;6800;50.940;6.940;2023-05-23T04:29:36;101035.41;;;25.36;41.98
13456;BME280;6800;50.940;6.940;2023-05-23T04:33:38;101037.97;;;25.22;41.84
13456;BME280;6800;50.940;6.940;2023-05-23T04:37:39;101041.16;;;25.64;41.77
13456;BME280;6800;50.940;6.940;2023-05-23T04:41:42;101042.16;;;25.63;41.38
13456;BME280;6800;50.940;6.940;2023-05-23T04:45:46;101033.50;;;25.84;41.30
13456;BME280;6800;50.940;6.940;2023-05-23T04:49:54;101042.22;;;25.55;42.00
13456;BME280;6800;50.940;6.940;2023-05-23T04:53:55;101052.53;;;25.11;42.94
13456;BME280;6800;50.940;6.940;2023-05-23T04:57:57;101045.28;;;25.36;42.77
13456;BME280;6800;50.940;6.940;2023-05-23T05:01:58;101051.88;;;25.56;42.72
13456;BME280;6800;50.940;6.940;2023-05-23T05:06:00;101065.19;;;25.25;42.72
13456;BME280;6800;50.940;6.940;2023-05-23T05:10:02;101059.59;;;25.04;43.60
13456;BME280;6800;50.940;6.940;2023-05-23T05:14:04;101064.28;;;25.02;43.69
13456;BME280;6800;50.940;6.940;2023-05-23T05:18:05;101056.41;;;25.01;43.06
13456;BME280;6800;50.940;6.940;2023-05-23T05:22:07;101071.84;;;25.37;42.91
13456;BME280;6800;50.940;6.940;2023-05-23T05:26:08;101073.19;;;25.33;42.46
13456;BME280;6800;50.940;6.940;2023-05-23T05:30:10;101077.50;;;25.50;42.33
13456;BME280;6800;50.940;6.940;2023-05-23T05:34:12;101071.44;;;25.57;42.02
13456;BME280;6800;50.940;6.940;2023-05-23T05:38:13;101078.38;;;25.74;41.57
13456;BME280;6800;50.940;6.940;2023-05-23T05:42:14;101080.91;;;25.20;43.02
13456;BME280;6800;50.940;6.940;2023-05-23T05:46:16;101080.41;;;25.25;42.82
13456;BME280;6800;50.940;6.940;2023-05-23T05:50:17;101079.94;;;25.68;41.70
13456;BME280;6800;50.940;6.940;2023-05-23T05:54:20;101096.72;;;25.46;42.13
13456;BME280;6800;50.940;6.940;2023-05-23T05:58:23;101086.88;;;25.46;42.02
13456;BME280;6800;50.940;6.940;2023-05-23T06:02:24;101095.84;;;25.53;41.92
13456;BME280;6800;50.940;6.940;2023-05-23T06:06:27;101097.72;;;25.45;42.33
13456;BME280;6800;50.940;6.940;2023-05-23T06:10:28;101093.94;;;25.23;42.80
13456;BME280;6800;50.940;6.940;2023-05-23T06:14:30;101097.31;;;25.17;42.78
13456;BME280;6800;50.940;6.940;2023-05-23T06:18:31;101102.50;;;25.03;43.63
13456;BME280;6800;50.940;6.940;2023-05-23T06:22:33;101103.13;;;25.21;42.89
13456;BME280;6800;50.940;6.940;2023-05-23T06:26:34;101105.81;;;25.05;43.84
13456;BME280;6800;50.940;6.940;2023-05-23T06:30:38;101106.69;;;24.97;43.87
13456;BME280;6800;50.940;6.940;2023-05-23T06:34:39;101112.03;;;24.97;43.57
13456;BME280;6800;50.940;6.940;2023-05-23T06:38:41;101106.31;;;25.16;43.06
13456;BME280;6800;50.940;6.940;2023-05-23T06:42:45;101109.97;;;25.23;42.50
13456;BME280;6800;50.940;6.940;2023-05-23T06:46:47;101116.38;;;25.06;43.03
13456;BME280;6800;50.940;6.940;2023-05-23T06:50:49;101123.34;;;25.15;43.59
13456;BME280;6800;50.940;6.940;2023-05-23T06:54:51;101119.53;;;25.10;43.67
13456;BME280;6800;50.940;6.940;2023-05-23T06:58:52;101128.19;;;25.28;43.01
13456;BME280;6800;50.940;6.940;2023-05-23T07:02:54;101126.38;;;25.04;43.13
13456;BME280;6800;50.940;6.940;2023-05-23T07:06:55;101137.66;;;25.54;42.04
13456;BME280;6800;50.940;6.940;2023-05-23T07:10:58;101133.19;;;25.47;42.14
13456;BME280;6800;50.940;6.940;2023-05-23T07:14:59;101142.59;;;25.74;41.69
13456;BME280;6800;50.940;6.940;2023-05-23T07:19:01;101143.47;;;25.97;41.31
13456;BME280;6800;50.940;6.940;2023-05-23T07:23:03;101144.72;;;25.86;40.92
13456;BME280;6800;50.940;6.940;2023-05-23T07:27:04;101153.31;;;26.04;40.93
13456;BME280;6800;50.940;6.940;2023-05-23T07:31:06;101156.53;;;25.92;41.22
13456;BME280;6800;50.940;6.940;2023-05-23T07:35:09;101168.72;;;25.55;41.65
13456;BME280;6800;50.940;6.940;2023-05-23T07:39:11;101161.78;;;25.77;41.37
13456;BME280;6800;50.940;6.940;2023-05-23T07:43:12;101157.72;;;25.97;40.82
13456;BME280;6800;50.940;6.940;2023-05-23T07:47:14;101164.09;;;25.88;41.05
13456;BME280;6800;50.940;6.940;2023-05-23T07:51:15;101168.28;;;25.44;41.80
13456;BME280;6800;50.940;6.940;2023-05-23T07:55:19;101164.94;;;25.89;41.43
13456;BME280;6800;50.940;6.940;2023-05-23T07:59:21;101163.59;;;25.30;42.14
13456;BME280;6800;50.940;6.940;2023-05-23T08:03:23;101168.22;;;25.60;41.79
13456;BME280;6800;50.940;6.940;2023-05-23T08:07:25;101170.28;;;26.27;40.52
13456;BME280;6800;50.940;6.940;2023-05-23T08:11:27;101174.06;;;25.64;42.05
13456;BME280;6800;50.940;6.940;2023-05-23T08:15:30;101174.94;;;26.34;40.58
13456;BME280;6800;50.940;6.940;2023-05-23T08:19:32;101177.41;;;26.12;40.37
13456;BME280;6800;50.940;6.940;2023-05-23T08:23:33;101187.34;;;25.88;40.90
13456;BME280;6800;50.940;6.940;2023-05-23T08:27:35;101188.06;;;26.20;40.14
13456;BME280;6800;50.940;6.940;2023-05-23T08:31:37;101187.53;;;25.86;40.28
13456;BME280;6800;50.940;6.940;2023-05-23T08:35:38;101188.16;;;25.09;42.31
13456;BME280;6800;50.940;6.940;2023-05-23T08:39:39;101192.72;;;25.80;40.77
13456;BME280;6800;50.940;6.940;2023-05-23T08:43:41;101197.34;;;25.47;41.24
13456;BME280;6800;50.940;6.940;2023-05-23T08:47:44;101208.16;;;25.53;41.73
13456;BME280;6800;50.940;6.940;2023-05-23T08:51:46;101200.19;;;25.45;42.22
13456;BME280;6800;50.940;6.940;2023-05-23T08:55:49;101215.00;;;25.72;41.40
13456;BME280;6800;50.940;6.940;2023-05-23T08:59:54;101225.84;;;25.71;40.90
13456;BME280;6800;50.940;6.940;2023-05-23T09:03:56;101222.91;;;25.33;41.95
13456;BME280;6800;50.940;6.940;2023-05-23T09:08:03;101231.88;;;25.65;41.43
13456;BME280;6800;50.940;6.940;2023-05-23T09:12:04;101233.09;;;25.38;42.15
13456;BME280;6800;50.940;6.940;2023-05-23T09:16:08;101235.97;;;25.99;41.01
13456;BME280;6800;50.940;6.940;2023-05-23T09:20:11;101239.66;;;25.98;40.82
13456;BME280;6800;50.940;6.940;2023-05-23T09:24:14;101242.72;;;25.79;41.57
13456;BME280;6800;50.940;6.940;2023-05-23T09:28:16;101243.47;;;25.57;42.28
13456;BME280;6800;50.940;6.940;2023-05-23T09:32:18;101247.13;;;25.16;43.02
13456;BME280;6800;50.940;6.940;2023-05-23T09:36:20;101256.31;;;24.81;43.55
13456;BME280;6800;50.940;6.940;2023-05-23T09:40:30;101258.41;;;24.69;43.19
13456;BME280;6800;50.940;6.940;2023-05-23T09:44:40;101262.81;;;24.78;42.27
13456;BME280;6800;50.940;6.940;2023-05-23T09:48:48;101262.00;;;25.02;42.11
13456;BME280;6800;50.940;6.940;2023-05-23T09:52:51;101271.50;;;24.89;41.98
13456;BME280;6800;50.940;6.940;2023-05-23T09:56:54;101273.75;;;24.67;41.47
13456;BME280;6800;50.940;6.940;2023-05-23T10:01:02;101270.72;;;24.54;41.95
13456;BME280;6800;50.940;6.940;2023-05-23T10:05:08;101271.50;;;24.89;40.67
13456;BME280;6800;50.940;6.940;2023-05-23T10:09:18;101266.16;;;25.05;40.82
13456;BME280;6800;50.940;6.940;2023-05-23T10:13:22;101268.53;;;25.32;40.92
13456;BME280;6800;50.940;6.940;2023-05-23T10:17:45;101272.56;;;26.23;38.54
13456;BME280;6800;50.940;6.940;2023-05-23T10:21:57;101279.34;;;25.71;39.90
13456;BME280;6800;50.940;6.940;2023-05-23T10:25:59;101275.34;;;25.26;40.16
13456;BME280;6800;50.940;6.940;2023-05-23T10:30:01;101285.69;;;25.78;39.50
13456;BME280;6800;50.940;6.940;2023-05-23T10:38:37;101294.72;;;25.85;38.92
13456;BME280;6800;50.940;6.940;2023-05-23T10:42:51;101296.88;;;25.81;37.75
13456;BME280;6800;50.940;6.940;2023-05-23T10:46:59;101302.56;;;25.94;37.70
13456;BME280;6800;50.940;6.940;2023-05-23T10:51:06;101307.19;;;26.24;37.05
13456;BME280;6800;50.940;6.940;2023-05-23T10:55:13;101313.56;;;26.15;36.82
13456;BME280;6800;50.940;6.940;2023-05-23T10:59:19;101321.16;;;25.80;37.43
13456;BME280;6800;50.940;6.940;2023-05-23T11:03:34;101323.84;;;25.47;38.25
13456;BME280;6800;50.940;6.940;2023-05-23T11:07:36;101333.72;;;25.55;38.33
13456;BME280;6800;50.940;6.940;2023-05-23T11:15:54;101330.66;;;25.26;37.99
13456;BME280;6800;50.940;6.940;2023-05-23T11:20:05;101332.34;;;25.35;37.74
13456;BME280;6800;50.940;6.940;2023-05-23T11:24:08;101343.66;;;25.05;38.61
13456;BME280;6800;50.940;6.940;2023-05-23T11:28:10;101349.59;;;24.74;38.33
13456;BME280;6800;50.940;6.940;2023-05-23T11:32:12;101343.66;;;24.97;37.84
13456;BME280;6800;50.940;6.940;2023-05-23T11:36:20;101356.94;;;25.63;36.73
13456;BME280;6800;50.940;6.940;2023-05-23T11:40:29;101355.72;;;25.25;37.10
13456;BME280;6800;50.940;6.940;2023-05-23T11:44:32;101356.00;;;24.90;36.87
13456;BME280;6800;50.940;6.940;2023-05-23T11:48:33;101354.09;;;25.88;35.17
13456;BME280;6800;50.940;6.940;2023-05-23T11:52:34;101339.47;;;26.31;33.98
13456;BME280;6800;50.940;6.940;2023-05-23T11:56:39;101345.78;;;26.46;33.50
13456;BME280;6800;50.940;6.940;2023-05-23T12:00:44;101339.78;;;27.51;32.17
13456;BME280;6800;50.940;6.940;2023-05-23T12:04:47;101324.31;;;28.57;30.54
13456;BME280;6800;50.940;6.940;2023-05-23T12:08:50;101327.00;;;26.85;33.18
13456;BME280;6800;50.940;6.940;2023-05-23T12:12:52;101325.25;;;27.82;31.27
13456;BME280;6800;50.940;6.940;2023-05-23T12:16:54;101325.22;;;28.34;30.30
13456;BME280;6800;50.940;6.940;2023-05-23T12:21:03;101329.84;;;27.97;31.22
13456;BME280;6800;50.940;6.940;2023-05-23T12:25:08;101332.94;;;27.86;30.80
13456;BME280;6800;50.940;6.940;2023-05-23T12:29:10;101337.72;;;27.38;31.36
13456;BME280;6800;50.940;6.940;2023-05-23T12:33:12;101333.38;;;27.97;30.46
13456;BME280;6800;50.940;6.940;2023-05-23T12:37:13;101345.53;;;27.48;31.28
13456;BME280;6800;50.940;6.940;2023-05-23T12:41:20;101342.13;;;27.31;31.96
13456;BME280;6800;50.940;6.940;2023-05-23T12:45:25;101339.13;;;26.26;33.19
13456;BME280;6800;50.940;6.940;2023-05-23T12:49:30;101337.16;;;26.04;32.64
13456;BME280;6800;50.940;6.940;2023-05-23T12:53:32;101343.66;;;27.03;31.64
13456;BME280;6800;50.940;6.940;2023-05-23T12:57:34;101334.69;;;27.78;29.99
13456;BME280;6800;50.940;6.940;2023-05-23T13:01:38;101334.03;;;27.76;29.72
13456;BME280;6800;50.940;6.940;2023-05-23T13:05:41;101340.50;;;26.14;32.31
13456;BME280;6800;50.940;6.940;2023-05-23T13:09:43;101350.66;;;27.57;30.46
13456;BME280;6800;50.940;6.940;2023-05-23T13:13:45;101344.97;;;27.30;31.09
13456;BME280;6800;50.940;6.940;2023-05-23T13:17:47;101348.72;;;27.66;30.38
13456;BME280;6800;50.940;6.940;2023-05-23T13:21:50;101355.69;;;27.07;31.29
13456;BME280;6800;50.940;6.940;2023-05-23T13:25:52;101364.41;;;25.35;32.70
13456;BME280;6800;50.940;6.940;2023-05-23T13:29:54;101350.97;;;27.09;30.24
13456;BME280;6800;50.940;6.940;2023-05-23T13:33:55;101358.88;;;25.04;32.79
13456;BME280;6800;50.940;6.940;2023-05-23T13:37:57;101356.31;;;27.62;29.21
13456;BME280;6800;50.940;6.940;2023-05-23T13:41:58;101353.41;;;27.49;29.24
13456;BME280;6800;50.940;6.940;2023-05-23T13:45:59;101346.88;;;27.66;28.79
13456;BME280;6800;50.940;6.940;2023-05-23T13:50:03;101352.31;;;27.58;28.19
13456;BME280;6800;50.940;6.940;2023-05-23T13:54:05;101352.34;;;27.05;28.03
13456;BME280;6800;50.940;6.940;2023-05-23T13:58:07;101350.28;;;27.60;27.29
13456;BME280;6800;50.940;6.940;2023-05-23T14:02:08;101343.53;;;27.19;27.73
13456;BME280;6800;50.940;6.940;2023-05-23T14:06:10;101349.34;;;27.08;27.46
13456;BME280;6800;50.940;6.940;2023-05-23T14:10:12;101340.31;;;27.24;27.60
13456;BME280;6800;50.940;6.940;2023-05-23T14:14:14;101347.19;;;26.65;28.69
13456;BME280;6800;50.940;6.940;2023-05-23T14:18:16;101341.94;;;27.55;27.31
13456;BME280;6800;50.940;6.940;2023-05-23T14:22:18;101345.97;;;26.37;28.08
13456;BME280;6800;50.940;6.940;2023-05-23T14:26:19;101345.44;;;27.41;27.34
13456;BME280;6800;50.940;6.940;2023-05-23T14:30:22;101345.16;;;27.51;27.08
13456;BME280;6800;50.940;6.940;2023-05-23T14:34:23;101340.09;;;27.33;27.20
13456;BME280;6800;50.940;6.940;2023-05-23T14:38:25;101336.22;;;28.54;25.94
13456;BME280;6800;50.940;6.940;2023-05-23T14:42:36;101332.25;;;27.54;27.03
13456;BME280;6800;50.940;6.940;2023-05-23T14:46:38;101334.63;;;26.26;28.46
13456;BME280;6800;50.940;6.940;2023-05-23T14:50:39;101336.13;;;26.68;27.68
13456;BME280;6800;50.940;6.940;2023-05-23T14:54:41;101333.38;;;27.37;27.14
13456;BME280;6800;50.940;6.940;2023-05-23T14:58:43;101332.09;;;27.70;27.26
13456;BME280;6800;50.940;6.940;2023-05-23T15:02:46;101328.69;;;27.39;26.61
13456;BME280;6800;50.940;6.940;2023-05-23T15:06:47;101335.34;;;26.90;28.65
13456;BME280;6800;50.940;6.940;2023-05-23T15:10:50;101332.63;;;26.67;27.10
13456;BME280;6800;50.940;6.940;2023-05-23T15:14:52;101329.88;;;27.37;27.51
13456;BME280;6800;50.940;6.940;2023-05-23T15:18:54;101337.75;;;25.51;29.18
13456;BME280;6800;50.940;6.940;2023-05-23T15:22:55;101329.72;;;26.77;27.47
13456;BME280;6800;50.940;6.940;2023-05-23T15:26:56;101324.56;;;26.98;27.41
13456;BME280;6800;50.940;6.940;2023-05-23T15:31:18;101315.22;;;26.94;27.22
13456;BME280;6800;50.940;6.940;2023-05-23T15:35:20;101317.75;;;24.89;30.40
13456;BME280;6800;50.940;6.940;2023-05-23T15:39:24;101314.34;;;27.24;27.20
13456;BME280;6800;50.940;6.940;2023-05-23T15:43:26;101310.44;;;27.35;27.77
13456;BME280;6800;50.940;6.940;2023-05-23T15:47:30;101299.38;;;28.19;26.12
13456;BME280;6800;50.940;6.940;2023-05-23T15:51:32;101307.78;;;27.27;27.73
13456;BME280;6800;50.940;6.940;2023-05-23T15:55:34;101298.66;;;28.25;26.35
13456;BME280;6800;50.940;6.940;2023-05-23T15:59:38;101306.44;;;28.20;26.55
13456;BME280;6800;50.940;6.940;2023-05-23T16:03:39;101305.97;;;27.27;25.82
13456;BME280;6800;50.940;6.940;2023-05-23T16:07:41;101292.03;;;27.83;25.37
13456;BME280;6800;50.940;6.940;2023-05-23T16:11:42;101306.00;;;27.94;25.37
13456;BME280;6800;50.940;6.940;2023-05-23T16:15:44;101305.56;;;26.85;26.78
13456;BME280;6800;50.940;6.940;2023-05-23T16:19:46;101300.81;;;27.77;25.79
13456;BME280;6800;50.940;6.940;2023-05-23T16:23:47;101296.13;;;28.09;24.83
13456;BME280;6800;50.940;6.940;2023-05-23T16:27:49;101295.25;;;27.64;25.69
13456;BME280;6800;50.940;6.940;2023-05-23T16:31:50;101302.06;;;28.19;25.01
13456;BME280;6800;50.940;6.940;2023-05-23T16:35:52;101294.63;;;27.92;24.94
13456;BME280;6800;50.940;6.940;2023-05-23T16:39:53;101298.53;;;26.84;26.53
13456;BME280;6800;50.940;6.940;2023-05-23T16:43:55;101298.25;;;27.24;25.91
13456;BME280;6800;50.940;6.940;2023-05-23T16:47:56;101301.22;;;27.06;25.86
13456;BME280;6800;50.940;6.940;2023-05-23T16:51:58;101306.53;;;27.74;25.51
13456;BME280;6800;50.940;6.940;2023-05-23T16:55:59;101304.22;;;27.12;26.02
13456;BME280;6800;50.940;6.940;2023-05-23T17:00:01;101303.97;;;26.76;26.79
13456;BME280;6800;50.940;6.940;2023-05-23T17:04:05;101314.72;;;26.60;26.82
13456;BME280;6800;50.940;6.940;2023-05-23T17:08:06;101316.84;;;26.80;26.91
13456;BME280;6800;50.940;6.940;2023-05-23T17:12:08;101308.94;;;26.79;27.14
13456;BME280;6800;50.940;6.940;2023-05-23T17:16:11;101310.66;;;27.02;26.59
13456;BME280;6800;50.940;6.940;2023-05-23T17:20:12;101319.16;;;25.49;28.91
13456;BME280;6800;50.940;6.940;2023-05-23T17:24:14;101319.66;;;25.69;28.09
13456;BME280;6800;50.940;6.940;2023-05-23T17:28:16;101325.16;;;25.19;29.11
13456;BME280;6800;50.940;6.940;2023-05-23T17:32:17;101328.03;;;25.58;28.36
13456;BME280;6800;50.940;6.940;2023-05-23T17:36:20;101331.00;;;25.79;28.13
13456;BME280;6800;50.940;6.940;2023-05-23T17:40:23;101343.34;;;25.96;28.21
13456;BME280;6800;50.940;6.940;2023-05-23T17:44:26;101342.72;;;25.86;28.46
13456;BME280;6800;50.940;6.940;2023-05-23T17:48:28;101336.47;;;26.18;27.72
13456;BME280;6800;50.940;6.940;2023-05-23T17:52:47;101334.88;;;25.52;28.82
13456;BME280;6800;50.940;6.940;2023-05-23T17:56:52;101330.00;;;25.88;27.81
13456;BME280;6800;50.940;6.940;2023-05-23T18:00:54;101345.91;;;25.49;28.28
13456;BME280;6800;50.940;6.940;2023-05-23T18:04:55;101343.06;;;25.59;28.04
13456;BME280;6800;50.940;6.940;2023-05-23T18:08:57;101350.34;;;26.21;27.14
13456;BME280;6800;50.940;6.940;2023-05-23T18:12:59;101339.19;;;25.94;27.48
13456;BME280;6800;50.940;6.940;2023-05-23T18:17:00;101335.56;;;25.79;27.65
13456;BME280;6800;50.940;6.940;2023-05-23T18:21:02;101345.22;;;25.39;27.86
13456;BME280;6800;50.940;6.940;2023-05-23T18:25:04;101347.78;;;25.49;27.98
13456;BME280;6800;50.940;6.940;2023-05-23T18:29:09;101357.91;;;25.29;28.24
13456;BME280;6800;50.940;6.940;2023-05-23T18:33:13;101350.19;;;25.18;28.33
13456;BME280;6800;50.940;6.940;2023-05-23T18:37:15;101353.44;;;25.62;29.01
13456;BME280;6800;50.940;6.940;2023-05-23T18:41:16;101361.78;;;25.43;28.97
13456;BME280;6800;50.940;6.940;2023-05-23T18:45:18;101367.59;;;24.72;29.26
13456;BME280;6800;50.940;6.940;2023-05-23T18:49:19;101368.59;;;24.71;29.09
13456;BME280;6800;50.940;6.940;2023-05-23T18:53:21;101371.53;;;24.94;28.99
13456;BME280;6800;50.940;6.940;2023-05-23T18:57:22;101372.66;;;24.50;29.42
13456;BME280;6800;50.940;6.940;2023-05-23T19:01:24;101373.84;;;23.96;30.35
13456;BME280;6800;50.940;6.940;2023-05-23T19:05:28;101383.59;;;25.06;28.75
13456;BME280;6800;50.940;6.940;2023-05-23T19:09:32;101393.31;;;24.40;29.54
13456;BME280;6800;50.940;6.940;2023-05-23T19:13:34;101404.69;;;24.50;30.14
13456;BME280;6800;50.940;6.940;2023-05-23T19:17:35;101409.59;;;24.29;30.34
13456;BME280;6800;50.940;6.940;2023-05-23T19:21:37;101416.91;;;24.52;29.86
13456;BME280;6800;50.940;6.940;2023-05-23T19:25:38;101422.81;;;23.95;30.45
13456;BME280;6800;50.940;6.940;2023-05-23T19:29:42;101420.78;;;24.58;29.82
13456;BME280;6800;50.940;6.940;2023-05-23T19:33:44;101430.25;;;24.52;30.31
13456;BME280;6800;50.940;6.940;2023-05-23T19:37:45;101427.91;;;24.49;30.09
13456;BME280;6800;50.940;6.940;2023-05-23T19:41:49;101425.56;;;24.21;30.34
13456;BME280;6800;50.940;6.940;2023-05-23T19:45:54;101447.63;;;23.35;32.05
13456;BME280;6800;50.940;6.940;2023-05-23T19:49:56;101437.03;;;23.78;31.69
13456;BME280;6800;50.940;6.940;2023-05-23T19:53:58;101441.13;;;24.08;30.46
13456;BME280;6800;50.940;6.940;2023-05-23T19:57:59;101451.88;;;23.63;31.41
13456;BME280;6800;50.940;6.940;2023-05-23T20:02:01;101446.31;;;23.91;31.07
13456;BME280;6800;50.940;6.940;2023-05-23T20:06:02;101451.34;;;23.59;31.02
13456;BME280;6800;50.940;6.940;2023-05-23T20:10:04;101457.28;;;23.53;30.85
13456;BME280;6800;50.940;6.940;2023-05-23T20:14:06;101460.88;;;23.62;30.80
13456;BME280;6800;50.940;6.940;2023-05-23T20:18:08;101460.50;;;23.39;30.85
13456;BME280;6800;50.940;6.940;2023-05-23T20:22:10;101469.09;;;23.51;30.85
13456;BME280;6800;50.940;6.940;2023-05-23T20:26:11;101479.97;;;23.40;31.15
13456;BME280;6800;50.940;6.940;2023-05-23T20:30:15;101490.50;;;23.32;31.15
13456;BME280;6800;50.940;6.940;2023-05-23T20:34:17;101489.16;;;23.18;31.24
13456;BME280;6800;50.940;6.940;2023-05-23T20:38:18;101491.63;;;23.11;31.56
13456;BME280;6800;50.940;6.940;2023-05-23T20:42:20;101499.28;;;23.14;31.49
13456;BME280;6800;50.940;6.940;2023-05-23T20:46:21;101504.47;;;23.16;31.69
13456;BME280;6800;50.940;6.940;2023-05-23T20:50:23;101507.53;;;22.94;32.28
13456;BME280;6800;50.940;6.940;2023-05-23T20:54:25;101510.03;;;22.95;32.09
13456;BME280;6800;50.940;6.940;2023-05-23T20:58:26;101513.81;;;22.93;32.32
13456;BME280;6800;50.940;6.940;2023-05-23T21:02:27;101509.56;;;22.73;32.71
13456;BME280;6800;50.940;6.940;2023-05-23T21:06:29;101510.53;;;22.72;32.45
13456;BME280;6800;50.940;6.940;2023-05-23T21:10:31;101520.75;;;22.86;32.39
13456;BME280;6800;50.940;6.940;2023-05-23T21:14:32;101523.19;;;22.41;32.49
13456;BME280;6800;50.940;6.940;2023-05-23T21:18:33;101526.25;;;22.46;32.45
13456;BME280;6800;50.940;6.940;2023-05-23T21:22:35;101520.22;;;22.44;32.30
13456;BME280;6800;50.940;6.940;2023-05-23T21:26:39;101525.25;;;21.80;33.24
13456;BME280;6800;50.940;6.940;2023-05-23T21:30:41;101522.66;;;22.28;32.45
13456;BME280;6800;50.940;6.940;2023-05-23T21:34:43;101526.00;;;22.30;32.36
13456;BME280;6800;50.940;6.940;2023-05-23T21:38:44;101530.34;;;22.40;32.42
13456;BME280;6800;50.940;6.940;2023-05-23T21:42:46;101519.28;;;22.26;32.78